Nearby METAR Reports

 

KCRW - Charleston, West Virginia, USA
Distance from station: WNW 2mi, 4km
Updated: 02/25/2018 7:54pm
Mostly cloudy
Mostly cloudy
 Wind from W
Wind: W 5 mph , 7 km/h
Temperature: 54°F , 12°C
Dew Point: 34°F , 1°C
Humidity: 47%
Barometer: 30.09 inHg , 1019 hPa
Clouds: Mostly cloudy
Visibility: 10 miles , 16 km
Cloud details: Mostly cloudy 19000 ft
2018/02/26 00:54 KCRW 260054Z 27004KT 10SM BKN190 12/01 A3009 RMK AO2 SLP189 T01170011
K6L4 - Logan, West Virginia, USA
Distance from station: SSW 41mi, 66km
Updated: 02/25/2018 8:15pm
Clear
Clear
 Wind from calm
Wind: Calm
Temperature: 52°F , 11°C
Dew Point: 39°F , 4°C
Humidity: 62%
Barometer: 30.10 inHg , 1019.3 hPa
Clouds: Clear
Visibility: 10 miles , 16 km
2018/02/26 01:15 K6L4 260115Z AUTO 00000KT 10SM CLR 11/04 A3010 RMK AO2
 
KBKW - Beckley, West Virginia, USA
Distance from station: SSE 46mi, 74km
Updated: 02/25/2018 8:08pm
Mostly cloudy
Mostly cloudy
 Wind from WNW
Wind: WNW 3 mph , 6 km/h
Temperature: 50°F , 10°C
Dew Point: 45°F , 7°C
Humidity: 82%
Barometer: 30.09 inHg , 1019 hPa
Clouds: Mostly cloudy
Visibility: 10 miles , 16 km
Cloud details: Few Clouds 1800 ft
Few Clouds 2800 ft
Mostly cloudy 3500 ft
2018/02/26 01:08 KBKW 260108Z AUTO 29003KT 10SM FEW018 FEW028 BKN035 10/07 A3009 RMK AO2 T01000072 TSNO
K3I2 - Pt Pleasant, West Virginia, USA
Distance from station: NW 48mi, 77km
Updated: 02/25/2018 8:15pm
Clear
Clear
 Wind from calm
Wind: Calm
Temperature: 48°F , 9°C
Dew Point: 36°F , 2°C
Humidity: 62%
Barometer: 30.11 inHg , 1019.6 hPa
Clouds: Clear
Visibility: 10 miles , 16 km
2018/02/26 01:15 K3I2 260115Z AUTO 00000KT 10SM CLR 09/02 A3011 RMK AO2 T00920021
 
KHTS - Huntington, West Virginia, USA
Distance from station: W 54mi, 87km
Updated: 02/25/2018 7:51pm
Clear
Clear
 Wind from WSW
Wind: WSW 5 mph , 7 km/h
Temperature: 50°F , 10°C
Wind Chill: 48°F , 9°C
Dew Point: 32°F , 0°C
Humidity: 50%
Barometer: 30.10 inHg , 1019.3 hPa
Clouds: Clear
Visibility: 10 miles , 16 km
2018/02/26 00:51 KHTS 260051Z 25004KT 10SM CLR 10/00 A3010 RMK AO2 SLP191 T01000000
KPKB - Parkersburg, West Virginia, USA
Distance from station: N 68mi, 110km
Updated: 02/25/2018 7:53pm
Clear
Clear
 Wind from WSW
Wind: WSW 3 mph , 6 km/h
Temperature: 50°F , 10°C
Dew Point: 34°F , 1°C
Humidity: 54%
Barometer: 30.10 inHg , 1019.3 hPa
Clouds: Clear
Visibility: 10 miles , 16 km
2018/02/26 00:53 KPKB 260053Z 24003KT 10SM CLR 10/01 A3010 RMK AO2 SLP194 T01000006
 
KUNI - Athens, Ohio, USA
Distance from station: NNW 69mi, 111km
Updated: 02/25/2018 8:15pm
Clear
Clear
 Wind from SW
Wind: SW 5 mph , 7 km/h
Temperature: 46°F , 8°C
Wind Chill: 44°F , 7°C
Dew Point: 34°F , 1°C
Humidity: 62%
Barometer: 30.09 inHg , 1019 hPa
Clouds: Clear
Visibility: 10 miles , 16 km
2018/02/26 01:15 KUNI 260115Z AUTO 23004KT 10SM CLR 08/01 A3009 RMK AO2 T00790014
KLWB - Lewisburg/Greenb, West Virginia, USA
Distance from station: ESE 71mi, 115km
Updated: 02/25/2018 8:15pm
Partly cloudy
Partly cloudy
 Wind from NW
Wind: NW 5 mph , 7 km/h
Temperature: 54°F , 12°C
Dew Point: 46°F , 8°C
Humidity: 77%
Barometer: 30.08 inHg , 1018.6 hPa
Clouds: Partly cloudy
Visibility: 10 miles , 16 km
Cloud details: Partly cloudy 2400 ft
Partly cloudy 2900 ft
2018/02/26 01:15 KLWB 260115Z AUTO 31004KT 10SM SCT024 SCT029 12/08 A3008 RMK AO2 T01160075
 
KSJS - Big Sandy Rgnl, Kentucky, USA
Distance from station: SW 73mi, 117km
Updated: 02/25/2018 8:15pm
Clear
Clear
 Wind from calm
Wind: Calm
Temperature: 50°F , 10°C
Dew Point: 37°F , 3°C
Humidity: 62%
Barometer: 30.13 inHg , 1020.3 hPa
Clouds: Clear
Visibility: 10 miles , 16 km
2018/02/26 01:15 KSJS 260115Z AUTO 00000KT 10SM CLR 10/03 A3013 RMK AO2 T01020031